sensor_id;sensor_type;location;lat;lon;timestamp;P1;durP1;ratioP1;P2;durP2;ratioP2
30068;SDS011;16894;49.456;10.644;2022-11-15T00:00:15;44.83;;;40.27;;
30068;SDS011;16894;49.456;10.644;2022-11-15T00:02:41;43.97;;;37.63;;
30068;SDS011;16894;49.456;10.644;2022-11-15T00:05:06;46.00;;;41.27;;
30068;SDS011;16894;49.456;10.644;2022-11-15T00:07:32;46.27;;;36.90;;
30068;SDS011;16894;49.456;10.644;2022-11-15T00:09:58;42.60;;;36.07;;
30068;SDS011;16894;49.456;10.644;2022-11-15T00:12:23;42.17;;;34.57;;
30068;SDS011;16894;49.456;10.644;2022-11-15T00:14:49;43.10;;;35.67;;
30068;SDS011;16894;49.456;10.644;2022-11-15T00:17:14;37.73;;;30.27;;
30068;SDS011;16894;49.456;10.644;2022-11-15T00:19:40;46.30;;;35.87;;
30068;SDS011;16894;49.456;10.644;2022-11-15T00:22:06;37.47;;;30.67;;
30068;SDS011;16894;49.456;10.644;2022-11-15T00:24:31;44.83;;;37.17;;
30068;SDS011;16894;49.456;10.644;2022-11-15T00:26:57;66.27;;;44.07;;
30068;SDS011;16894;49.456;10.644;2022-11-15T00:29:22;41.47;;;36.80;;
30068;SDS011;16894;49.456;10.644;2022-11-15T00:31:48;44.20;;;34.53;;
30068;SDS011;16894;49.456;10.644;2022-11-15T00:34:13;40.20;;;35.90;;
30068;SDS011;16894;49.456;10.644;2022-11-15T00:36:39;40.00;;;34.20;;
30068;SDS011;16894;49.456;10.644;2022-11-15T00:39:05;49.17;;;30.93;;
30068;SDS011;16894;49.456;10.644;2022-11-15T00:41:30;36.83;;;30.33;;
30068;SDS011;16894;49.456;10.644;2022-11-15T00:43:56;36.47;;;29.95;;
30068;SDS011;16894;49.456;10.644;2022-11-15T00:46:22;37.80;;;31.67;;
30068;SDS011;16894;49.456;10.644;2022-11-15T00:48:47;34.13;;;30.47;;
30068;SDS011;16894;49.456;10.644;2022-11-15T00:51:13;47.80;;;33.10;;
30068;SDS011;16894;49.456;10.644;2022-11-15T00:53:39;41.97;;;32.23;;
30068;SDS011;16894;49.456;10.644;2022-11-15T00:56:04;34.90;;;30.23;;
30068;SDS011;16894;49.456;10.644;2022-11-15T00:58:30;40.30;;;31.58;;
30068;SDS011;16894;49.456;10.644;2022-11-15T01:00:55;40.03;;;29.20;;
30068;SDS011;16894;49.456;10.644;2022-11-15T01:03:21;38.83;;;30.93;;
30068;SDS011;16894;49.456;10.644;2022-11-15T01:05:47;40.53;;;33.90;;
30068;SDS011;16894;49.456;10.644;2022-11-15T01:08:13;38.27;;;30.93;;
30068;SDS011;16894;49.456;10.644;2022-11-15T01:10:40;33.42;;;29.83;;
30068;SDS011;16894;49.456;10.644;2022-11-15T01:13:06;37.47;;;31.27;;
30068;SDS011;16894;49.456;10.644;2022-11-15T01:15:31;36.40;;;31.60;;
30068;SDS011;16894;49.456;10.644;2022-11-15T01:17:57;33.07;;;29.53;;
30068;SDS011;16894;49.456;10.644;2022-11-15T01:20:22;37.30;;;30.43;;
30068;SDS011;16894;49.456;10.644;2022-11-15T01:22:48;35.50;;;29.57;;
30068;SDS011;16894;49.456;10.644;2022-11-15T01:25:14;38.10;;;31.47;;
30068;SDS011;16894;49.456;10.644;2022-11-15T01:27:39;34.50;;;30.58;;
30068;SDS011;16894;49.456;10.644;2022-11-15T01:30:05;37.17;;;31.57;;
30068;SDS011;16894;49.456;10.644;2022-11-15T01:34:57;33.75;;;30.27;;
30068;SDS011;16894;49.456;10.644;2022-11-15T01:37:23;39.93;;;32.83;;
30068;SDS011;16894;49.456;10.644;2022-11-15T01:39:48;37.13;;;32.37;;
30068;SDS011;16894;49.456;10.644;2022-11-15T01:42:14;39.93;;;32.63;;
30068;SDS011;16894;49.456;10.644;2022-11-15T01:44:41;44.47;;;33.60;;
30068;SDS011;16894;49.456;10.644;2022-11-15T01:47:56;41.75;;;37.58;;
30068;SDS011;16894;49.456;10.644;2022-11-15T01:50:06;42.92;;;38.33;;
30068;SDS011;16894;49.456;10.644;2022-11-15T01:52:35;48.65;;;43.95;;
30068;SDS011;16894;49.456;10.644;2022-11-15T01:57:45;42.75;;;38.38;;
30068;SDS011;16894;49.456;10.644;2022-11-15T02:00:13;37.35;;;33.38;;
30068;SDS011;16894;49.456;10.644;2022-11-15T02:02:39;37.28;;;33.38;;
30068;SDS011;16894;49.456;10.644;2022-11-15T02:05:05;32.20;;;28.70;;
30068;SDS011;16894;49.456;10.644;2022-11-15T02:07:32;35.92;;;32.10;;
30068;SDS011;16894;49.456;10.644;2022-11-15T02:10:01;32.97;;;29.58;;
30068;SDS011;16894;49.456;10.644;2022-11-15T02:12:34;39.67;;;29.13;;
30068;SDS011;16894;49.456;10.644;2022-11-15T02:15:00;34.60;;;27.88;;
30068;SDS011;16894;49.456;10.644;2022-11-15T02:20:30;31.55;;;28.00;;
30068;SDS011;16894;49.456;10.644;2022-11-15T02:23:26;31.77;;;28.33;;
30068;SDS011;16894;49.456;10.644;2022-11-15T02:35:02;35.10;;;30.48;;
30068;SDS011;16894;49.456;10.644;2022-11-15T02:37:53;35.70;;;31.33;;
30068;SDS011;16894;49.456;10.644;2022-11-15T02:43:16;42.42;;;32.28;;
30068;SDS011;16894;49.456;10.644;2022-11-15T02:46:09;32.83;;;26.73;;
30068;SDS011;16894;49.456;10.644;2022-11-15T02:49:17;28.77;;;25.85;;
30068;SDS011;16894;49.456;10.644;2022-11-15T02:51:43;34.03;;;29.20;;
30068;SDS011;16894;49.456;10.644;2022-11-15T02:54:13;29.83;;;26.73;;
30068;SDS011;16894;49.456;10.644;2022-11-15T02:56:43;30.35;;;26.70;;
30068;SDS011;16894;49.456;10.644;2022-11-15T03:13:00;42.97;;;33.20;;
30068;SDS011;16894;49.456;10.644;2022-11-15T03:15:43;32.83;;;29.52;;
30068;SDS011;16894;49.456;10.644;2022-11-15T03:18:28;30.52;;;26.17;;
30068;SDS011;16894;49.456;10.644;2022-11-15T03:20:58;36.63;;;26.05;;
30068;SDS011;16894;49.456;10.644;2022-11-15T03:23:28;27.40;;;23.45;;
30068;SDS011;16894;49.456;10.644;2022-11-15T03:25:55;22.15;;;19.73;;
30068;SDS011;16894;49.456;10.644;2022-11-15T03:28:32;30.38;;;22.33;;
30068;SDS011;16894;49.456;10.644;2022-11-15T03:31:02;28.85;;;23.08;;
30068;SDS011;16894;49.456;10.644;2022-11-15T03:33:50;32.95;;;25.58;;
30068;SDS011;16894;49.456;10.644;2022-11-15T03:36:16;33.92;;;21.65;;
30068;SDS011;16894;49.456;10.644;2022-11-15T03:38:43;30.23;;;23.83;;
30068;SDS011;16894;49.456;10.644;2022-11-15T03:41:18;30.85;;;26.50;;
30068;SDS011;16894;49.456;10.644;2022-11-15T03:43:52;31.05;;;24.88;;
30068;SDS011;16894;49.456;10.644;2022-11-15T03:46:26;32.47;;;27.38;;
30068;SDS011;16894;49.456;10.644;2022-11-15T03:49:14;35.08;;;28.80;;
30068;SDS011;16894;49.456;10.644;2022-11-15T03:51:50;34.45;;;30.92;;
30068;SDS011;16894;49.456;10.644;2022-11-15T03:54:16;42.07;;;31.50;;
30068;SDS011;16894;49.456;10.644;2022-11-15T03:56:41;36.33;;;32.20;;
30068;SDS011;16894;49.456;10.644;2022-11-15T03:59:07;36.47;;;32.70;;
30068;SDS011;16894;49.456;10.644;2022-11-15T04:01:32;38.07;;;34.20;;
30068;SDS011;16894;49.456;10.644;2022-11-15T04:03:58;37.57;;;33.30;;
30068;SDS011;16894;49.456;10.644;2022-11-15T04:06:24;34.93;;;31.23;;
30068;SDS011;16894;49.456;10.644;2022-11-15T04:08:49;28.63;;;25.43;;
30068;SDS011;16894;49.456;10.644;2022-11-15T04:11:15;36.00;;;32.47;;
30068;SDS011;16894;49.456;10.644;2022-11-15T04:13:41;33.80;;;23.67;;
30068;SDS011;16894;49.456;10.644;2022-11-15T04:16:06;35.80;;;24.57;;
30068;SDS011;16894;49.456;10.644;2022-11-15T04:18:32;36.63;;;25.13;;
30068;SDS011;16894;49.456;10.644;2022-11-15T04:20:57;27.50;;;22.50;;
30068;SDS011;16894;49.456;10.644;2022-11-15T04:23:41;28.65;;;22.75;;
30068;SDS011;16894;49.456;10.644;2022-11-15T04:26:20;26.20;;;22.90;;
30068;SDS011;16894;49.456;10.644;2022-11-15T04:28:47;32.10;;;23.40;;
30068;SDS011;16894;49.456;10.644;2022-11-15T04:31:32;33.05;;;25.95;;
30068;SDS011;16894;49.456;10.644;2022-11-15T04:33:58;31.47;;;25.30;;
30068;SDS011;16894;49.456;10.644;2022-11-15T04:36:24;34.72;;;25.65;;
30068;SDS011;16894;49.456;10.644;2022-11-15T04:39:08;32.35;;;23.52;;
30068;SDS011;16894;49.456;10.644;2022-11-15T04:41:34;38.80;;;23.50;;
30068;SDS011;16894;49.456;10.644;2022-11-15T04:44:00;26.73;;;22.02;;
30068;SDS011;16894;49.456;10.644;2022-11-15T04:46:25;24.43;;;21.87;;
30068;SDS011;16894;49.456;10.644;2022-11-15T04:48:52;26.63;;;22.20;;
30068;SDS011;16894;49.456;10.644;2022-11-15T04:51:18;26.65;;;23.63;;
30068;SDS011;16894;49.456;10.644;2022-11-15T04:53:44;27.90;;;23.70;;
30068;SDS011;16894;49.456;10.644;2022-11-15T04:56:10;49.73;;;37.57;;
30068;SDS011;16894;49.456;10.644;2022-11-15T04:58:35;41.03;;;33.92;;
30068;SDS011;16894;49.456;10.644;2022-11-15T05:01:11;49.33;;;35.30;;
30068;SDS011;16894;49.456;10.644;2022-11-15T05:03:42;32.42;;;28.48;;
30068;SDS011;16894;49.456;10.644;2022-11-15T05:06:27;51.38;;;37.28;;
30068;SDS011;16894;49.456;10.644;2022-11-15T05:08:52;34.27;;;30.60;;
30068;SDS011;16894;49.456;10.644;2022-11-15T05:11:18;41.40;;;31.48;;
30068;SDS011;16894;49.456;10.644;2022-11-15T05:13:45;34.70;;;30.88;;
30068;SDS011;16894;49.456;10.644;2022-11-15T05:16:11;43.13;;;38.23;;
30068;SDS011;16894;49.456;10.644;2022-11-15T05:18:36;50.77;;;45.53;;
30068;SDS011;16894;49.456;10.644;2022-11-15T05:21:05;51.40;;;42.70;;
30068;SDS011;16894;49.456;10.644;2022-11-15T05:23:32;46.40;;;41.80;;
30068;SDS011;16894;49.456;10.644;2022-11-15T05:25:58;65.37;;;59.37;;
30068;SDS011;16894;49.456;10.644;2022-11-15T05:28:25;52.50;;;47.58;;
30068;SDS011;16894;49.456;10.644;2022-11-15T05:30:50;52.67;;;48.10;;
30068;SDS011;16894;49.456;10.644;2022-11-15T05:33:16;44.90;;;40.47;;
30068;SDS011;16894;49.456;10.644;2022-11-15T05:38:19;35.78;;;31.95;;
30068;SDS011;16894;49.456;10.644;2022-11-15T05:40:44;45.67;;;41.40;;
30068;SDS011;16894;49.456;10.644;2022-11-15T05:43:10;41.53;;;37.37;;
30068;SDS011;16894;49.456;10.644;2022-11-15T05:45:36;41.33;;;36.55;;
30068;SDS011;16894;49.456;10.644;2022-11-15T05:48:03;45.13;;;40.15;;
30068;SDS011;16894;49.456;10.644;2022-11-15T05:50:31;48.97;;;44.08;;
30068;SDS011;16894;49.456;10.644;2022-11-15T05:52:58;60.35;;;52.63;;
30068;SDS011;16894;49.456;10.644;2022-11-15T05:55:24;63.72;;;56.97;;
30068;SDS011;16894;49.456;10.644;2022-11-15T05:57:49;59.07;;;53.60;;
30068;SDS011;16894;49.456;10.644;2022-11-15T06:00:15;67.63;;;60.97;;
30068;SDS011;16894;49.456;10.644;2022-11-15T06:02:41;66.28;;;59.85;;
30068;SDS011;16894;49.456;10.644;2022-11-15T06:05:07;89.72;;;78.85;;
30068;SDS011;16894;49.456;10.644;2022-11-15T06:07:33;88.68;;;77.28;;
30068;SDS011;16894;49.456;10.644;2022-11-15T06:09:58;80.87;;;70.90;;
30068;SDS011;16894;49.456;10.644;2022-11-15T06:12:24;78.07;;;70.73;;
30068;SDS011;16894;49.456;10.644;2022-11-15T06:14:49;88.57;;;80.60;;
30068;SDS011;16894;49.456;10.644;2022-11-15T06:17:15;99.33;;;90.67;;
30068;SDS011;16894;49.456;10.644;2022-11-15T06:19:41;92.67;;;83.90;;
30068;SDS011;16894;49.456;10.644;2022-11-15T06:22:06;81.00;;;73.27;;
30068;SDS011;16894;49.456;10.644;2022-11-15T06:24:32;84.37;;;76.57;;
30068;SDS011;16894;49.456;10.644;2022-11-15T06:26:57;72.57;;;65.23;;
30068;SDS011;16894;49.456;10.644;2022-11-15T06:29:24;72.22;;;64.63;;
30068;SDS011;16894;49.456;10.644;2022-11-15T06:31:49;83.23;;;74.83;;
30068;SDS011;16894;49.456;10.644;2022-11-15T06:34:15;82.47;;;73.47;;
30068;SDS011;16894;49.456;10.644;2022-11-15T06:36:40;84.33;;;77.17;;
30068;SDS011;16894;49.456;10.644;2022-11-15T06:39:06;85.47;;;78.30;;
30068;SDS011;16894;49.456;10.644;2022-11-15T06:41:34;78.80;;;71.83;;
30068;SDS011;16894;49.456;10.644;2022-11-15T06:44:00;74.75;;;68.10;;
30068;SDS011;16894;49.456;10.644;2022-11-15T06:46:26;72.43;;;65.38;;
30068;SDS011;16894;49.456;10.644;2022-11-15T06:48:52;68.17;;;62.33;;
30068;SDS011;16894;49.456;10.644;2022-11-15T06:51:18;69.32;;;63.03;;
30068;SDS011;16894;49.456;10.644;2022-11-15T06:53:44;68.37;;;62.37;;
30068;SDS011;16894;49.456;10.644;2022-11-15T06:56:10;67.82;;;60.53;;
30068;SDS011;16894;49.456;10.644;2022-11-15T06:58:35;77.30;;;61.50;;
30068;SDS011;16894;49.456;10.644;2022-11-15T07:01:02;69.28;;;62.67;;
30068;SDS011;16894;49.456;10.644;2022-11-15T07:03:51;72.32;;;65.80;;
30068;SDS011;16894;49.456;10.644;2022-11-15T07:06:17;76.03;;;68.70;;
30068;SDS011;16894;49.456;10.644;2022-11-15T07:08:43;83.80;;;75.73;;
30068;SDS011;16894;49.456;10.644;2022-11-15T07:11:08;77.97;;;70.90;;
30068;SDS011;16894;49.456;10.644;2022-11-15T07:13:35;82.17;;;74.53;;
30068;SDS011;16894;49.456;10.644;2022-11-15T07:16:05;68.75;;;62.30;;
30068;SDS011;16894;49.456;10.644;2022-11-15T07:18:36;76.22;;;68.60;;
30068;SDS011;16894;49.456;10.644;2022-11-15T07:21:03;73.82;;;66.97;;
30068;SDS011;16894;49.456;10.644;2022-11-15T07:23:30;88.82;;;74.10;;
30068;SDS011;16894;49.456;10.644;2022-11-15T07:25:56;73.28;;;66.20;;
30068;SDS011;16894;49.456;10.644;2022-11-15T07:28:23;65.72;;;59.03;;
30068;SDS011;16894;49.456;10.644;2022-11-15T07:33:15;52.92;;;47.72;;
30068;SDS011;16894;49.456;10.644;2022-11-15T07:35:41;65.93;;;59.33;;
30068;SDS011;16894;49.456;10.644;2022-11-15T07:40:33;53.47;;;48.08;;
30068;SDS011;16894;49.456;10.644;2022-11-15T07:43:02;74.07;;;67.37;;
30068;SDS011;16894;49.456;10.644;2022-11-15T07:45:30;76.93;;;69.50;;
30068;SDS011;16894;49.456;10.644;2022-11-15T07:47:56;75.50;;;68.32;;
30068;SDS011;16894;49.456;10.644;2022-11-15T07:50:25;78.35;;;71.25;;
30068;SDS011;16894;49.456;10.644;2022-11-15T07:52:57;87.03;;;78.97;;
30068;SDS011;16894;49.456;10.644;2022-11-15T07:55:24;92.38;;;81.93;;
30068;SDS011;16894;49.456;10.644;2022-11-15T07:57:52;93.40;;;83.32;;
30068;SDS011;16894;49.456;10.644;2022-11-15T08:00:18;84.22;;;75.00;;
30068;SDS011;16894;49.456;10.644;2022-11-15T08:02:44;78.40;;;70.43;;
30068;SDS011;16894;49.456;10.644;2022-11-15T08:05:10;73.38;;;65.97;;
30068;SDS011;16894;49.456;10.644;2022-11-15T08:07:36;68.47;;;61.50;;
30068;SDS011;16894;49.456;10.644;2022-11-15T08:10:03;66.80;;;59.75;;
30068;SDS011;16894;49.456;10.644;2022-11-15T08:12:30;63.22;;;53.92;;
30068;SDS011;16894;49.456;10.644;2022-11-15T08:14:57;60.40;;;50.03;;
30068;SDS011;16894;49.456;10.644;2022-11-15T08:17:23;54.03;;;43.38;;
30068;SDS011;16894;49.456;10.644;2022-11-15T08:22:14;53.55;;;47.83;;
30068;SDS011;16894;49.456;10.644;2022-11-15T08:24:40;44.60;;;39.20;;
30068;SDS011;16894;49.456;10.644;2022-11-15T08:27:06;42.07;;;28.80;;
30068;SDS011;16894;49.456;10.644;2022-11-15T08:29:43;38.08;;;27.08;;
30068;SDS011;16894;49.456;10.644;2022-11-15T08:32:09;27.92;;;22.23;;
30068;SDS011;16894;49.456;10.644;2022-11-15T08:34:35;29.38;;;22.40;;
30068;SDS011;16894;49.456;10.644;2022-11-15T08:37:02;30.88;;;24.98;;
30068;SDS011;16894;49.456;10.644;2022-11-15T08:39:28;35.37;;;25.80;;
30068;SDS011;16894;49.456;10.644;2022-11-15T08:41:53;32.70;;;28.27;;
30068;SDS011;16894;49.456;10.644;2022-11-15T08:44:19;30.30;;;27.40;;
30068;SDS011;16894;49.456;10.644;2022-11-15T08:46:47;30.90;;;27.33;;
30068;SDS011;16894;49.456;10.644;2022-11-15T08:49:13;32.10;;;28.73;;
30068;SDS011;16894;49.456;10.644;2022-11-15T08:51:39;35.43;;;31.90;;
30068;SDS011;16894;49.456;10.644;2022-11-15T08:54:04;35.23;;;30.90;;
30068;SDS011;16894;49.456;10.644;2022-11-15T08:56:30;34.63;;;31.33;;
30068;SDS011;16894;49.456;10.644;2022-11-15T08:58:56;35.78;;;32.50;;
30068;SDS011;16894;49.456;10.644;2022-11-15T09:01:21;34.53;;;28.30;;
30068;SDS011;16894;49.456;10.644;2022-11-15T09:03:48;30.27;;;24.77;;
30068;SDS011;16894;49.456;10.644;2022-11-15T09:06:13;26.23;;;19.20;;
30068;SDS011;16894;49.456;10.644;2022-11-15T09:08:40;30.55;;;20.13;;
30068;SDS011;16894;49.456;10.644;2022-11-15T09:11:06;19.53;;;16.47;;
30068;SDS011;16894;49.456;10.644;2022-11-15T09:13:33;29.58;;;15.63;;
30068;SDS011;16894;49.456;10.644;2022-11-15T09:15:59;19.45;;;16.90;;
30068;SDS011;16894;49.456;10.644;2022-11-15T09:18:26;23.67;;;17.73;;
30068;SDS011;16894;49.456;10.644;2022-11-15T09:20:54;46.33;;;25.95;;
30068;SDS011;16894;49.456;10.644;2022-11-15T09:23:24;41.13;;;26.77;;
30068;SDS011;16894;49.456;10.644;2022-11-15T09:25:51;26.77;;;22.90;;
30068;SDS011;16894;49.456;10.644;2022-11-15T09:28:17;27.70;;;20.35;;
30068;SDS011;16894;49.456;10.644;2022-11-15T09:30:43;28.05;;;24.75;;
30068;SDS011;16894;49.456;10.644;2022-11-15T09:33:09;26.97;;;24.27;;
30068;SDS011;16894;49.456;10.644;2022-11-15T09:35:36;41.20;;;25.88;;
30068;SDS011;16894;49.456;10.644;2022-11-15T09:38:02;30.70;;;27.50;;
30068;SDS011;16894;49.456;10.644;2022-11-15T09:40:29;31.02;;;28.17;;
30068;SDS011;16894;49.456;10.644;2022-11-15T09:51:16;25.15;;;22.63;;
30068;SDS011;16894;49.456;10.644;2022-11-15T09:56:29;20.60;;;12.75;;
30068;SDS011;16894;49.456;10.644;2022-11-15T10:04:42;18.05;;;12.23;;
30068;SDS011;16894;49.456;10.644;2022-11-15T10:07:23;18.23;;;10.20;;
30068;SDS011;16894;49.456;10.644;2022-11-15T10:09:54;10.73;;;8.30;;
30068;SDS011;16894;49.456;10.644;2022-11-15T10:12:29;10.48;;;8.20;;
30068;SDS011;16894;49.456;10.644;2022-11-15T10:15:03;9.68;;;7.75;;
30068;SDS011;16894;49.456;10.644;2022-11-15T10:20:28;19.27;;;8.00;;
30068;SDS011;16894;49.456;10.644;2022-11-15T10:25:27;15.90;;;7.78;;
30068;SDS011;16894;49.456;10.644;2022-11-15T10:27:58;12.98;;;7.07;;
30068;SDS011;16894;49.456;10.644;2022-11-15T10:30:35;14.23;;;7.35;;
30068;SDS011;16894;49.456;10.644;2022-11-15T10:46:27;9.65;;;8.25;;
30068;SDS011;16894;49.456;10.644;2022-11-15T10:48:53;18.73;;;8.87;;
30068;SDS011;16894;49.456;10.644;2022-11-15T10:51:45;18.52;;;8.98;;
30068;SDS011;16894;49.456;10.644;2022-11-15T10:54:11;11.15;;;8.07;;
30068;SDS011;16894;49.456;10.644;2022-11-15T10:56:40;12.38;;;8.63;;
30068;SDS011;16894;49.456;10.644;2022-11-15T10:59:12;10.82;;;8.85;;
30068;SDS011;16894;49.456;10.644;2022-11-15T11:01:46;12.52;;;10.82;;
30068;SDS011;16894;49.456;10.644;2022-11-15T11:04:13;13.00;;;11.65;;
30068;SDS011;16894;49.456;10.644;2022-11-15T11:09:22;14.50;;;13.00;;
30068;SDS011;16894;49.456;10.644;2022-11-15T11:11:53;15.48;;;14.02;;
30068;SDS011;16894;49.456;10.644;2022-11-15T11:19:46;14.93;;;12.43;;
30068;SDS011;16894;49.456;10.644;2022-11-15T11:36:26;19.85;;;16.30;;
30068;SDS011;16894;49.456;10.644;2022-11-15T11:44:54;18.77;;;16.98;;
30068;SDS011;16894;49.456;10.644;2022-11-15T11:47:49;21.15;;;19.05;;
30068;SDS011;16894;49.456;10.644;2022-11-15T11:50:23;21.33;;;18.38;;
30068;SDS011;16894;49.456;10.644;2022-11-15T11:55:47;22.92;;;20.70;;
30068;SDS011;16894;49.456;10.644;2022-11-15T11:58:28;22.63;;;18.30;;
30068;SDS011;16894;49.456;10.644;2022-11-15T12:06:49;23.10;;;20.83;;
30068;SDS011;16894;49.456;10.644;2022-11-15T12:09:35;20.48;;;18.67;;
30068;SDS011;16894;49.456;10.644;2022-11-15T12:14:59;37.58;;;20.48;;
30068;SDS011;16894;49.456;10.644;2022-11-15T12:17:29;25.23;;;22.08;;
30068;SDS011;16894;49.456;10.644;2022-11-15T12:20:00;28.23;;;21.23;;
30068;SDS011;16894;49.456;10.644;2022-11-15T12:25:08;32.17;;;25.20;;
30068;SDS011;16894;49.456;10.644;2022-11-15T12:30:29;27.02;;;24.35;;
30068;SDS011;16894;49.456;10.644;2022-11-15T12:33:28;26.20;;;23.42;;
30068;SDS011;16894;49.456;10.644;2022-11-15T12:41:24;31.33;;;21.58;;
30068;SDS011;16894;49.456;10.644;2022-11-15T12:43:52;26.95;;;21.58;;
30068;SDS011;16894;49.456;10.644;2022-11-15T12:51:11;36.47;;;28.10;;
30068;SDS011;16894;49.456;10.644;2022-11-15T12:53:37;30.77;;;24.50;;
30068;SDS011;16894;49.456;10.644;2022-11-15T12:58:40;33.55;;;27.95;;
30068;SDS011;16894;49.456;10.644;2022-11-15T13:06:44;22.55;;;20.48;;
30068;SDS011;16894;49.456;10.644;2022-11-15T13:10:00;19.13;;;17.45;;
30068;SDS011;16894;49.456;10.644;2022-11-15T13:14:49;22.40;;;19.15;;
30068;SDS011;16894;49.456;10.644;2022-11-15T13:19:45;23.83;;;22.13;;
30068;SDS011;16894;49.456;10.644;2022-11-15T13:22:13;26.27;;;21.80;;
30068;SDS011;16894;49.456;10.644;2022-11-15T13:24:58;22.95;;;20.80;;
30068;SDS011;16894;49.456;10.644;2022-11-15T13:27:26;23.70;;;21.50;;
30068;SDS011;16894;49.456;10.644;2022-11-15T13:29:52;23.67;;;21.35;;
30068;SDS011;16894;49.456;10.644;2022-11-15T13:34:48;21.65;;;19.35;;
30068;SDS011;16894;49.456;10.644;2022-11-15T13:39:45;28.38;;;25.45;;
30068;SDS011;16894;49.456;10.644;2022-11-15T13:42:16;33.15;;;25.75;;
30068;SDS011;16894;49.456;10.644;2022-11-15T13:44:56;25.38;;;22.85;;
30068;SDS011;16894;49.456;10.644;2022-11-15T13:47:27;26.90;;;19.60;;
30068;SDS011;16894;49.456;10.644;2022-11-15T13:49:56;25.30;;;21.30;;
30068;SDS011;16894;49.456;10.644;2022-11-15T13:52:22;21.52;;;19.80;;
30068;SDS011;16894;49.456;10.644;2022-11-15T13:54:56;54.83;;;23.40;;
30068;SDS011;16894;49.456;10.644;2022-11-15T13:57:44;44.45;;;25.15;;
30068;SDS011;16894;49.456;10.644;2022-11-15T14:03:22;25.42;;;23.13;;
30068;SDS011;16894;49.456;10.644;2022-11-15T14:06:10;49.20;;;24.77;;
30068;SDS011;16894;49.456;10.644;2022-11-15T14:11:36;27.48;;;20.67;;
30068;SDS011;16894;49.456;10.644;2022-11-15T14:16:41;31.67;;;23.58;;
30068;SDS011;16894;49.456;10.644;2022-11-15T14:19:12;29.63;;;23.83;;
30068;SDS011;16894;49.456;10.644;2022-11-15T14:28:28;30.05;;;26.98;;
30068;SDS011;16894;49.456;10.644;2022-11-15T14:30:58;28.50;;;25.77;;
30068;SDS011;16894;49.456;10.644;2022-11-15T14:35:54;58.05;;;41.40;;
30068;SDS011;16894;49.456;10.644;2022-11-15T14:38:22;210.63;;;66.28;;
30068;SDS011;16894;49.456;10.644;2022-11-15T14:40:49;47.88;;;41.42;;
30068;SDS011;16894;49.456;10.644;2022-11-15T14:43:15;46.00;;;41.30;;
30068;SDS011;16894;49.456;10.644;2022-11-15T14:45:41;45.63;;;42.27;;
30068;SDS011;16894;49.456;10.644;2022-11-15T14:48:07;41.50;;;37.88;;
30068;SDS011;16894;49.456;10.644;2022-11-15T14:50:33;43.47;;;39.67;;
30068;SDS011;16894;49.456;10.644;2022-11-15T14:53:00;39.15;;;34.92;;
30068;SDS011;16894;49.456;10.644;2022-11-15T14:57:53;32.28;;;29.58;;
30068;SDS011;16894;49.456;10.644;2022-11-15T15:02:46;34.35;;;31.42;;
30068;SDS011;16894;49.456;10.644;2022-11-15T15:05:27;56.88;;;40.47;;
30068;SDS011;16894;49.456;10.644;2022-11-15T15:08:03;59.90;;;41.38;;
30068;SDS011;16894;49.456;10.644;2022-11-15T15:10:35;39.97;;;34.95;;
30068;SDS011;16894;49.456;10.644;2022-11-15T15:13:02;39.67;;;31.15;;
30068;SDS011;16894;49.456;10.644;2022-11-15T15:15:35;37.00;;;32.63;;
30068;SDS011;16894;49.456;10.644;2022-11-15T15:18:02;35.50;;;31.75;;
30068;SDS011;16894;49.456;10.644;2022-11-15T15:20:33;36.42;;;30.92;;
30068;SDS011;16894;49.456;10.644;2022-11-15T15:23:00;50.00;;;35.65;;
30068;SDS011;16894;49.456;10.644;2022-11-15T15:25:27;47.93;;;37.77;;
30068;SDS011;16894;49.456;10.644;2022-11-15T15:27:55;164.10;;;64.13;;
30068;SDS011;16894;49.456;10.644;2022-11-15T15:30:22;107.28;;;50.38;;
30068;SDS011;16894;49.456;10.644;2022-11-15T15:32:48;61.20;;;35.65;;
30068;SDS011;16894;49.456;10.644;2022-11-15T15:35:15;44.45;;;31.63;;
30068;SDS011;16894;49.456;10.644;2022-11-15T15:37:41;40.58;;;26.17;;
30068;SDS011;16894;49.456;10.644;2022-11-15T15:40:10;44.55;;;28.40;;
30068;SDS011;16894;49.456;10.644;2022-11-15T15:42:42;50.25;;;29.23;;
30068;SDS011;16894;49.456;10.644;2022-11-15T15:45:08;65.72;;;34.97;;
30068;SDS011;16894;49.456;10.644;2022-11-15T15:47:34;60.70;;;34.83;;
30068;SDS011;16894;49.456;10.644;2022-11-15T15:50:00;51.13;;;30.73;;
30068;SDS011;16894;49.456;10.644;2022-11-15T15:52:26;42.30;;;26.57;;
30068;SDS011;16894;49.456;10.644;2022-11-15T15:54:51;40.60;;;21.70;;
30068;SDS011;16894;49.456;10.644;2022-11-15T15:57:17;21.50;;;19.23;;
30068;SDS011;16894;49.456;10.644;2022-11-15T15:59:43;21.63;;;19.50;;
30068;SDS011;16894;49.456;10.644;2022-11-15T16:02:12;26.58;;;23.80;;
30068;SDS011;16894;49.456;10.644;2022-11-15T16:04:39;27.70;;;24.75;;
30068;SDS011;16894;49.456;10.644;2022-11-15T16:07:05;33.83;;;25.30;;
30068;SDS011;16894;49.456;10.644;2022-11-15T16:09:37;29.95;;;24.58;;
30068;SDS011;16894;49.456;10.644;2022-11-15T16:12:21;32.25;;;24.52;;
30068;SDS011;16894;49.456;10.644;2022-11-15T16:14:46;32.13;;;22.27;;
30068;SDS011;16894;49.456;10.644;2022-11-15T16:17:22;26.90;;;20.87;;
30068;SDS011;16894;49.456;10.644;2022-11-15T16:19:50;29.10;;;20.35;;
30068;SDS011;16894;49.456;10.644;2022-11-15T16:22:15;24.10;;;17.80;;
30068;SDS011;16894;49.456;10.644;2022-11-15T16:24:41;26.03;;;17.47;;
30068;SDS011;16894;49.456;10.644;2022-11-15T16:27:17;24.30;;;17.17;;
30068;SDS011;16894;49.456;10.644;2022-11-15T16:29:44;25.00;;;16.35;;
30068;SDS011;16894;49.456;10.644;2022-11-15T16:32:11;25.02;;;18.58;;
30068;SDS011;16894;49.456;10.644;2022-11-15T16:37:03;26.33;;;18.48;;
30068;SDS011;16894;49.456;10.644;2022-11-15T16:39:29;26.48;;;16.00;;
30068;SDS011;16894;49.456;10.644;2022-11-15T16:41:56;26.40;;;15.25;;
30068;SDS011;16894;49.456;10.644;2022-11-15T16:44:23;22.88;;;15.02;;
30068;SDS011;16894;49.456;10.644;2022-11-15T16:46:49;22.85;;;16.13;;
30068;SDS011;16894;49.456;10.644;2022-11-15T16:49:18;26.25;;;18.48;;
30068;SDS011;16894;49.456;10.644;2022-11-15T16:51:45;22.27;;;16.88;;
30068;SDS011;16894;49.456;10.644;2022-11-15T16:54:12;33.47;;;17.63;;
30068;SDS011;16894;49.456;10.644;2022-11-15T16:56:38;25.93;;;18.30;;
30068;SDS011;16894;49.456;10.644;2022-11-15T16:59:04;24.55;;;16.92;;
30068;SDS011;16894;49.456;10.644;2022-11-15T17:01:31;24.15;;;14.82;;
30068;SDS011;16894;49.456;10.644;2022-11-15T17:03:59;20.63;;;13.40;;
30068;SDS011;16894;49.456;10.644;2022-11-15T17:06:36;16.10;;;13.43;;
30068;SDS011;16894;49.456;10.644;2022-11-15T17:09:06;17.85;;;12.48;;
30068;SDS011;16894;49.456;10.644;2022-11-15T17:11:43;25.67;;;15.88;;
30068;SDS011;16894;49.456;10.644;2022-11-15T17:14:09;31.00;;;20.35;;
30068;SDS011;16894;49.456;10.644;2022-11-15T17:19:02;30.08;;;20.85;;